Time;durP1;ratioP1;P1;durP2;ratioP2;P2;SDS_P1;SDS_P2;PMS_P1;PMS_P2;Temp;Humidity;BMP_temperature;BMP_pressure;BME280_temperature;BME280_humidity;BME280_pressure;Samples;Min_cycle;Max_cycle;Signal;HPM_P1;HPM_P2
2023/11/07 00:02:53;;;;;;;1.08;0.50;;;;;;;9.73;62.61;99270.69;10517824;28;20271;-62
2023/11/07 00:07:55;;;;;;;1.75;0.80;;;;;;;9.78;62.63;99271.22;10518335;28;20044;-63
2023/11/07 00:12:57;;;;;;;1.20;0.70;;;;;;;9.87;62.51;99280.22;10500081;28;20137;-62
2023/11/07 00:17:59;;;;;;;2.60;0.90;;;;;;;9.94;62.27;99276.25;10520421;28;20052;-63
2023/11/07 00:23:01;;;;;;;5.53;1.35;;;;;;;9.95;62.36;99277.94;10516581;28;20036;-62
2023/11/07 00:28:03;;;;;;;0.68;0.60;;;;;;;9.90;62.31;99283.47;10518546;28;20455;-63
2023/11/07 00:33:06;;;;;;;1.23;0.60;;;;;;;9.88;62.56;99284.50;10518998;28;20116;-63
2023/11/07 00:38:09;;;;;;;1.35;0.70;;;;;;;9.90;62.49;99272.16;10517579;28;20054;-63
2023/11/07 00:43:11;;;;;;;2.80;0.80;;;;;;;9.89;62.67;99273.13;10532537;27;20040;-63
2023/11/07 00:48:13;;;;;;;0.63;0.63;;;;;;;9.74;62.67;99277.59;10517385;28;20052;-63
2023/11/07 00:53:15;;;;;;;1.33;0.90;;;;;;;9.70;62.91;99281.34;10515332;28;20036;-62
2023/11/07 00:58:20;;;;;;;1.17;0.60;;;;;;;9.71;63.04;99296.06;10499647;28;20055;-62
2023/11/07 01:03:22;;;;;;;2.88;0.90;;;;;;;9.75;62.93;99297.53;10516484;28;20044;-63
2023/11/07 01:08:25;;;;;;;1.65;0.88;;;;;;;9.75;62.69;99300.13;10516541;28;20036;-63
2023/11/07 01:13:27;;;;;;;0.60;0.60;;;;;;;9.86;62.77;99300.28;10496855;28;20547;-63
2023/11/07 01:18:29;;;;;;;0.75;0.60;;;;;;;9.92;62.59;99297.25;10516583;28;20051;-63
2023/11/07 01:23:32;;;;;;;0.60;0.50;;;;;;;10.03;62.42;99304.38;10515956;28;20243;-63
2023/11/07 01:28:34;;;;;;;3.60;0.70;;;;;;;10.04;62.29;99303.41;10481660;28;20048;-63
2023/11/07 01:33:36;;;;;;;0.70;0.60;;;;;;;9.99;62.18;99302.91;10494760;28;20200;-63
2023/11/07 01:38:39;;;;;;;1.60;0.95;;;;;;;10.09;62.05;99306.56;10529056;27;20139;-63
2023/11/07 01:43:41;;;;;;;4.05;0.90;;;;;;;10.13;61.90;99310.66;10516475;28;20499;-63
2023/11/07 01:48:43;;;;;;;0.98;0.70;;;;;;;10.10;61.79;99298.63;10515827;28;20052;-63
2023/11/07 01:53:46;;;;;;;1.92;0.70;;;;;;;10.03;61.75;99300.00;10513815;28;20048;-63
2023/11/07 01:58:48;;;;;;;10.80;2.13;;;;;;;9.99;61.94;99305.53;10496174;28;20135;-64
2023/11/07 02:03:51;;;;;;;0.57;0.57;;;;;;;9.91;61.79;99302.59;10492741;28;20636;-63
2023/11/07 02:08:53;;;;;;;1.23;0.70;;;;;;;9.85;61.79;99303.00;10513503;28;20092;-63
2023/11/07 02:13:56;;;;;;;1.35;0.70;;;;;;;9.69;61.91;99305.78;10497327;28;20039;-63
2023/11/07 02:18:58;;;;;;;5.80;0.98;;;;;;;9.72;62.07;99308.19;10513362;28;20050;-63
2023/11/07 02:24:00;;;;;;;1.95;0.70;;;;;;;9.73;61.76;99304.63;10530854;28;20044;-63
2023/11/07 02:29:02;;;;;;;1.10;0.60;;;;;;;9.63;61.73;99306.97;10513529;28;20028;-63
2023/11/07 02:34:05;;;;;;;1.20;0.82;;;;;;;9.55;61.60;99311.88;10482491;28;20139;-63
2023/11/07 02:39:12;;;;;;;0.45;0.45;;;;;;;9.60;61.61;99315.03;10493602;28;20054;-63
2023/11/07 02:44:17;;;;;;;1.13;0.85;;;;;;;9.72;61.50;99313.41;10514229;28;20121;-63
2023/11/07 02:49:19;;;;;;;0.40;0.40;;;;;;;9.73;61.41;99309.84;10468712;28;20044;-63
2023/11/07 02:54:21;;;;;;;1.35;0.70;;;;;;;9.61;61.44;99298.41;10469290;28;20044;-63
2023/11/07 02:59:23;;;;;;;1.05;0.65;;;;;;;9.57;61.72;99302.16;10470320;28;20143;-63
2023/11/07 03:04:26;;;;;;;4.88;0.90;;;;;;;9.52;61.69;99306.84;10470713;28;20053;-63
2023/11/07 03:09:28;;;;;;;2.00;1.05;;;;;;;9.43;61.95;99299.63;10469560;28;20319;-63
2023/11/07 03:14:29;;;;;;;3.17;1.25;;;;;;;9.25;62.15;99303.41;10469970;28;20128;-64
2023/11/07 03:19:32;;;;;;;1.48;0.77;;;;;;;9.26;62.08;99310.31;10469235;28;20041;-63
2023/11/07 03:24:34;;;;;;;2.85;1.00;;;;;;;9.27;62.22;99304.16;10470049;28;20632;-64
2023/11/07 03:29:36;;;;;;;0.63;0.63;;;;;;;9.42;62.08;99307.56;10459797;28;20179;-63
2023/11/07 03:34:38;;;;;;;1.38;0.75;;;;;;;9.52;61.90;99312.06;10468774;28;20056;-63
2023/11/07 03:39:41;;;;;;;1.17;0.80;;;;;;;9.65;61.64;99309.47;10461226;28;20190;-63
2023/11/07 03:44:43;;;;;;;0.70;0.63;;;;;;;9.71;61.55;99301.28;10468847;28;20058;-63
2023/11/07 03:49:45;;;;;;;4.38;1.10;;;;;;;9.69;61.58;99303.16;10504744;28;20129;-63
2023/11/07 03:54:48;;;;;;;3.28;1.30;;;;;;;9.69;61.57;99311.00;10494004;28;20553;-63
2023/11/07 03:59:50;;;;;;;1.20;0.60;;;;;;;9.76;61.44;99319.25;10512823;28;20135;-63
2023/11/07 04:04:53;;;;;;;1.35;0.90;;;;;;;9.77;61.26;99320.94;10524985;28;20118;-63
2023/11/07 04:09:56;;;;;;;1.13;0.70;;;;;;;9.84;61.22;99323.03;10511928;28;20176;-63
2023/11/07 04:14:58;;;;;;;0.50;0.50;;;;;;;9.85;61.22;99323.88;10509249;28;20052;-63
2023/11/07 04:20:02;;;;;;;0.50;0.50;;;;;;;9.84;61.10;99317.81;10511406;28;20058;-62
2023/11/07 04:25:06;;;;;;;0.68;0.60;;;;;;;9.76;61.02;99311.44;10506496;28;20166;-62
2023/11/07 04:30:10;;;;;;;3.22;0.90;;;;;;;9.67;60.91;99317.28;10509824;28;20097;-63
2023/11/07 04:35:13;;;;;;;0.75;0.70;;;;;;;9.45;61.31;99326.47;10514901;28;21066;-63
2023/11/07 04:40:16;;;;;;;0.73;0.50;;;;;;;9.52;61.35;99319.88;10531538;27;20093;-63
2023/11/07 04:45:20;;;;;;;4.63;0.90;;;;;;;9.57;61.14;99315.22;10528182;27;20050;-63
2023/11/07 04:50:24;;;;;;;2.80;0.60;;;;;;;9.45;61.34;99302.97;10507682;28;20134;-63
2023/11/07 04:55:26;;;;;;;0.85;0.70;;;;;;;9.46;61.23;99301.19;10511630;28;20055;-63
2023/11/07 05:00:28;;;;;;;0.68;0.50;;;;;;;9.35;61.34;99303.66;10497010;28;20484;-62
2023/11/07 05:05:30;;;;;;;0.63;0.60;;;;;;;9.29;61.49;99306.66;10512931;28;20072;-61
2023/11/07 05:10:33;;;;;;;0.50;0.50;;;;;;;9.25;61.32;99298.19;10510461;28;20048;-62
2023/11/07 05:15:35;;;;;;;3.88;0.73;;;;;;;9.22;61.60;99293.16;10513206;28;20044;-62
2023/11/07 05:20:38;;;;;;;1.48;1.05;;;;;;;9.16;61.51;99305.75;10513512;28;20449;-62
2023/11/07 05:25:40;;;;;;;0.85;0.50;;;;;;;9.19;61.50;99303.81;10507829;28;20423;-63
2023/11/07 05:30:43;;;;;;;0.70;0.70;;;;;;;9.29;61.54;99304.06;10495991;28;20113;-62
2023/11/07 05:35:45;;;;;;;0.75;0.65;;;;;;;9.32;61.51;99307.28;10510175;28;20947;-63
2023/11/07 05:40:47;;;;;;;0.50;0.50;;;;;;;9.41;61.25;99304.09;10494321;28;20052;-63
2023/11/07 05:45:49;;;;;;;2.38;1.33;;;;;;;9.40;61.31;99310.25;10515905;28;20166;-62
2023/11/07 05:50:51;;;;;;;1.35;0.95;;;;;;;9.43;61.12;99307.44;10514948;28;20438;-63
2023/11/07 05:55:53;;;;;;;1.40;1.00;;;;;;;9.43;60.83;99306.59;10512557;28;20049;-62
2023/11/07 06:00:57;;;;;;;0.75;0.60;;;;;;;9.51;60.79;99306.94;10496675;28;20044;-63
2023/11/07 06:05:59;;;;;;;1.05;0.85;;;;;;;9.49;60.78;99307.06;10513169;28;20715;-63
2023/11/07 06:11:02;;;;;;;3.28;1.00;;;;;;;9.55;60.82;99318.84;10494377;28;20069;-62
2023/11/07 06:16:05;;;;;;;0.88;0.85;;;;;;;9.64;60.55;99326.94;10495541;28;20040;-63
2023/11/07 06:21:08;;;;;;;1.67;0.80;;;;;;;9.67;60.53;99331.13;10496066;28;20055;-63
2023/11/07 06:26:10;;;;;;;1.40;0.88;;;;;;;9.64;60.63;99331.31;10512273;28;20043;-63
2023/11/07 06:31:12;;;;;;;3.20;0.70;;;;;;;9.67;60.45;99325.91;10512762;28;20048;-63
2023/11/07 06:36:14;;;;;;;1.48;0.80;;;;;;;9.73;60.24;99319.47;10511806;28;20062;-63
2023/11/07 06:41:20;;;;;;;1.30;0.80;;;;;;;9.57;60.31;99330.88;10512863;28;20115;-63
2023/11/07 06:46:22;;;;;;;1.08;0.90;;;;;;;9.70;60.49;99330.09;10512759;28;20457;-63
2023/11/07 06:51:25;;;;;;;1.73;1.15;;;;;;;9.86;60.30;99338.59;10511184;28;20052;-63
2023/11/07 06:56:27;;;;;;;2.75;1.08;;;;;;;9.88;60.13;99344.56;10512119;28;20062;-63
2023/11/07 07:01:29;;;;;;;1.35;1.10;;;;;;;9.84;59.77;99356.16;10510890;28;20123;-62
2023/11/07 07:06:32;;;;;;;1.52;1.17;;;;;;;9.99;60.18;99349.94;10513895;28;20048;-63
2023/11/07 07:11:34;;;;;;;1.45;0.98;;;;;;;10.00;59.88;99352.44;10511732;28;20170;-62
2023/11/07 07:16:37;;;;;;;1.55;0.93;;;;;;;10.10;59.86;99355.25;10510744;28;20058;-63
2023/11/07 07:21:39;;;;;;;1.08;0.90;;;;;;;10.12;59.79;99361.22;10511659;28;20040;-63
2023/11/07 07:26:43;;;;;;;3.72;1.05;;;;;;;10.10;59.70;99361.31;10513647;28;20055;-63
2023/11/07 07:31:46;;;;;;;1.02;0.90;;;;;;;10.06;59.58;99365.09;10515084;28;20051;-62
2023/11/07 07:36:50;;;;;;;0.90;0.70;;;;;;;9.99;59.84;99365.59;10514409;28;20059;-63
2023/11/07 07:41:52;;;;;;;1.55;0.88;;;;;;;10.04;59.82;99372.19;10514120;28;20051;-63
2023/11/07 07:46:56;;;;;;;0.80;0.80;;;;;;;10.15;59.61;99374.09;10513617;28;20056;-63
2023/11/07 07:51:59;;;;;;;0.80;0.80;;;;;;;10.23;59.68;99374.41;10514813;28;20054;-63
2023/11/07 07:57:01;;;;;;;2.33;1.00;;;;;;;10.31;59.27;99375.59;10513472;28;20064;-63
2023/11/07 08:02:06;;;;;;;0.82;0.82;;;;;;;10.41;59.41;99375.78;10497816;28;20168;-63
2023/11/07 08:07:08;;;;;;;3.40;0.98;;;;;;;10.40;59.19;99374.94;10520296;28;20133;-64
2023/11/07 08:12:12;;;;;;;1.25;0.82;;;;;;;10.52;59.02;99371.50;10501102;28;20044;-63
2023/11/07 08:17:14;;;;;;;0.77;0.70;;;;;;;10.47;59.11;99372.75;10507770;28;20059;-62
2023/11/07 08:22:18;;;;;;;0.68;0.68;;;;;;;10.50;58.98;99370.75;10490115;28;20463;-62
2023/11/07 08:27:22;;;;;;;1.00;0.90;;;;;;;10.61;58.91;99367.41;10507877;28;20193;-62
2023/11/07 08:32:25;;;;;;;0.70;0.70;;;;;;;10.83;58.48;99367.59;10516217;28;20571;-62
2023/11/07 08:37:28;;;;;;;0.70;0.70;;;;;;;11.22;57.73;99369.22;10516290;28;20032;-70
2023/11/07 08:42:30;;;;;;;1.13;0.65;;;;;;;11.58;57.35;99379.66;10516498;28;20040;-69
2023/11/07 08:47:32;;;;;;;0.57;0.57;;;;;;;11.77;56.32;99387.88;10516047;28;20055;-69
2023/11/07 08:52:35;;;;;;;0.70;0.70;;;;;;;11.96;56.80;99397.84;10495357;28;20047;-70
2023/11/07 08:57:38;;;;;;;0.57;0.52;;;;;;;11.89;56.56;99401.84;10518084;28;20105;-70
2023/11/07 09:02:43;;;;;;;0.60;0.60;;;;;;;11.76;56.91;99406.34;10511723;28;20137;-71
2023/11/07 09:07:46;;;;;;;0.50;0.50;;;;;;;11.63;57.41;99411.63;10517348;28;20055;-70
2023/11/07 09:12:48;;;;;;;0.40;0.40;;;;;;;11.56;57.91;99409.56;10516227;28;20118;-70
2023/11/07 09:17:51;;;;;;;0.40;0.40;;;;;;;11.36;58.28;99413.59;10516173;28;20121;-70
2023/11/07 09:22:53;;;;;;;0.40;0.40;;;;;;;11.41;58.49;99415.88;10515834;28;20158;-71
2023/11/07 09:27:56;;;;;;;0.60;0.60;;;;;;;11.38;58.61;99422.16;10516161;28;20750;-70
2023/11/07 09:32:58;;;;;;;0.52;0.52;;;;;;;11.40;58.66;99424.69;10496215;28;20044;-70
2023/11/07 09:38:00;;;;;;;0.77;0.70;;;;;;;11.46;58.78;99427.69;10512233;28;20161;-69
2023/11/07 09:43:02;;;;;;;0.50;0.50;;;;;;;11.39;58.76;99433.47;10513294;28;20488;-69
2023/11/07 09:48:09;;;;;;;0.60;0.60;;;;;;;11.57;58.61;99440.03;10517155;28;20048;-69
2023/11/07 09:53:14;;;;;;;0.70;0.70;;;;;;;11.56;58.31;99435.75;10481704;28;20039;-70
2023/11/07 09:58:28;;;;;;;0.75;0.57;;;;;;;11.59;58.00;99452.06;10517482;28;20050;-69
2023/11/07 10:03:32;;;;;;;0.32;0.32;;;;;;;11.58;58.20;99454.81;10516557;28;20507;-69
2023/11/07 10:08:35;;;;;;;0.55;0.43;;;;;;;11.73;58.06;99448.44;10500464;28;20307;-68
2023/11/07 10:13:38;;;;;;;0.50;0.50;;;;;;;11.90;57.74;99442.84;10516688;28;20072;-68
2023/11/07 10:18:49;;;;;;;0.38;0.38;;;;;;;11.95;57.38;99445.94;10517036;28;20051;-69
2023/11/07 10:23:55;;;;;;;0.75;0.63;;;;;;;11.98;57.62;99453.59;10517168;28;20471;-69
2023/11/07 10:29:03;;;;;;;2.13;0.50;;;;;;;12.13;57.21;99447.22;10516399;28;20044;-69
2023/11/07 10:34:17;;;;;;;2.15;0.50;;;;;;;12.38;56.02;99446.28;10533012;27;20048;-69
2023/11/07 10:39:21;;;;;;;0.30;0.30;;;;;;;12.60;56.61;99447.16;10516115;28;20549;-69
2023/11/07 10:44:30;;;;;;;0.40;0.40;;;;;;;12.61;56.36;99448.84;10495435;28;20047;-69
2023/11/07 10:49:32;;;;;;;1.23;0.52;;;;;;;12.62;56.19;99447.06;10515450;28;20052;-69
2023/11/07 10:54:34;;;;;;;0.38;0.38;;;;;;;12.58;56.64;99442.97;10516359;28;20480;-69
2023/11/07 10:59:43;;;;;;;0.40;0.40;;;;;;;12.41;56.79;99446.06;10514714;28;20060;-69
2023/11/07 11:04:48;;;;;;;0.52;0.40;;;;;;;12.37;57.46;99442.00;10514852;28;20051;-68
2023/11/07 11:09:52;;;;;;;0.95;0.70;;;;;;;12.84;56.43;99440.03;10515707;28;20383;-69
2023/11/07 11:14:53;;;;;;;0.43;0.30;;;;;;;12.88;56.36;99436.22;10515828;28;20488;-68
2023/11/07 11:20:14;;;;;;;0.45;0.20;;;;;;;12.78;55.68;99435.28;10530868;28;20063;-69
2023/11/07 11:26:02;;;;;;;3.65;0.63;;;;;;;12.74;55.24;99433.84;10515444;28;20059;-69
2023/11/07 11:31:04;;;;;;;0.25;0.25;;;;;;;12.69;55.73;99422.03;10512986;28;20399;-70
2023/11/07 11:36:32;;;;;;;2.70;0.43;;;;;;;12.50;55.22;99427.00;10522240;28;20151;-69
2023/11/07 11:41:53;;;;;;;0.43;0.43;;;;;;;12.61;55.21;99427.88;10524120;28;20050;-69
2023/11/07 11:46:57;;;;;;;0.30;0.30;;;;;;;12.55;55.49;99435.38;10523239;28;20492;-69
2023/11/07 11:51:59;;;;;;;0.40;0.40;;;;;;;12.27;56.27;99431.34;10523404;28;20515;-69
2023/11/07 11:57:01;;;;;;;1.20;0.52;;;;;;;11.97;56.06;99420.47;10522481;28;20044;-69
2023/11/07 12:02:05;;;;;;;0.40;0.40;;;;;;;12.09;55.21;99420.41;10505283;28;20040;-69
2023/11/07 12:07:07;;;;;;;0.40;0.40;;;;;;;12.13;54.83;99423.63;10522405;28;20126;-69
2023/11/07 12:12:14;;;;;;;0.50;0.50;;;;;;;12.25;54.72;99412.25;10522601;28;20112;-69
2023/11/07 12:17:17;;;;;;;0.20;0.20;;;;;;;12.08;54.69;99415.28;10521426;28;20059;-69
2023/11/07 12:22:19;;;;;;;0.50;0.50;;;;;;;12.04;54.47;99406.81;10520894;28;20506;-69
2023/11/07 12:27:21;;;;;;;0.73;0.40;;;;;;;12.12;54.12;99419.34;10521749;28;20162;-69
2023/11/07 12:32:24;;;;;;;0.75;0.63;;;;;;;12.26;53.86;99411.28;10533586;27;20174;-69
2023/11/07 12:37:26;;;;;;;3.63;0.40;;;;;;;12.18;54.07;99410.19;10519454;28;20036;-69
2023/11/07 12:42:28;;;;;;;0.82;0.40;;;;;;;12.20;53.91;99411.75;10519346;28;20117;-69
2023/11/07 12:47:30;;;;;;;0.50;0.50;;;;;;;12.03;55.16;99422.63;10519204;28;20319;-70
2023/11/07 12:52:33;;;;;;;0.28;0.28;;;;;;;11.87;55.03;99425.56;10520902;28;20054;-69
2023/11/07 12:57:36;;;;;;;1.48;0.85;;;;;;;12.07;54.62;99418.84;10520291;28;20032;-69
2023/11/07 13:02:39;;;;;;;0.63;0.60;;;;;;;11.82;53.86;99421.59;10520399;28;20527;-69
2023/11/07 13:07:42;;;;;;;0.45;0.40;;;;;;;11.48;54.78;99428.41;10535507;28;20056;-69
2023/11/07 13:12:44;;;;;;;1.33;0.70;;;;;;;11.51;54.94;99432.59;10520565;28;20098;-70
2023/11/07 13:17:57;;;;;;;0.30;0.30;;;;;;;11.43;54.47;99422.69;10519525;28;20048;-68
2023/11/07 13:22:59;;;;;;;1.48;1.08;;;;;;;11.08;56.30;99425.16;10519829;28;20524;-69
2023/11/07 13:28:01;;;;;;;1.27;0.60;;;;;;;11.27;56.34;99424.72;10502205;28;20125;-69
2023/11/07 13:33:03;;;;;;;1.88;0.47;;;;;;;11.12;57.37;99433.63;10502523;28;20131;-69
2023/11/07 13:38:06;;;;;;;0.68;0.50;;;;;;;11.11;57.39;99435.41;10500960;28;20056;-69
2023/11/07 13:43:08;;;;;;;0.43;0.40;;;;;;;10.86;57.65;99438.03;10518714;28;20306;-69
2023/11/07 13:48:10;;;;;;;0.30;0.30;;;;;;;10.75;58.04;99443.16;10517080;28;20167;-70
2023/11/07 13:53:12;;;;;;;0.40;0.32;;;;;;;10.68;58.47;99439.28;10518996;28;20405;-69
2023/11/07 13:58:14;;;;;;;0.40;0.40;;;;;;;11.27;57.84;99432.56;10517753;28;20063;-69
2023/11/07 14:03:16;;;;;;;0.95;0.40;;;;;;;11.32;57.51;99423.44;10518370;28;20463;-69
2023/11/07 14:08:19;;;;;;;2.40;1.02;;;;;;;11.28;57.14;99426.38;10515833;28;20438;-69
2023/11/07 14:13:21;;;;;;;0.40;0.40;;;;;;;11.13;57.23;99438.75;10517657;28;20071;-70
2023/11/07 14:18:23;;;;;;;0.40;0.40;;;;;;;10.78;57.57;99444.72;10516411;28;20534;-70
2023/11/07 14:23:30;;;;;;;0.47;0.47;;;;;;;10.54;57.67;99447.22;10516678;28;20054;-69
2023/11/07 14:28:33;;;;;;;1.48;0.80;;;;;;;10.60;57.81;99452.06;10516586;28;20040;-69
2023/11/07 14:33:39;;;;;;;0.55;0.35;;;;;;;10.59;57.33;99452.97;10516818;28;20492;-70
2023/11/07 14:38:42;;;;;;;2.15;0.90;;;;;;;10.49;57.70;99457.16;10532309;27;20487;-70
2023/11/07 14:43:45;;;;;;;0.30;0.28;;;;;;;10.23;57.94;99466.72;10515963;28;20044;-69
2023/11/07 14:48:47;;;;;;;0.95;0.63;;;;;;;10.10;57.80;99468.44;10516533;28;20051;-70
2023/11/07 14:53:53;;;;;;;1.95;0.60;;;;;;;10.06;58.19;99468.75;10516289;28;20487;-70
2023/11/07 14:58:55;;;;;;;0.50;0.50;;;;;;;10.32;57.88;99470.47;10512712;28;20067;-70
2023/11/07 15:03:58;;;;;;;1.38;0.70;;;;;;;10.37;57.81;99474.50;10515383;28;20068;-69
2023/11/07 15:09:00;;;;;;;1.23;0.60;;;;;;;10.32;57.95;99480.94;10512160;28;20105;-70
2023/11/07 15:14:02;;;;;;;0.80;0.43;;;;;;;10.36;57.64;99471.97;10507277;28;20048;-69
2023/11/07 15:19:04;;;;;;;1.05;0.80;;;;;;;10.37;57.82;99478.88;10512842;28;20048;-70
2023/11/07 15:24:06;;;;;;;0.68;0.63;;;;;;;10.35;57.52;99486.84;10514990;28;20032;-69
2023/11/07 15:29:09;;;;;;;1.67;0.75;;;;;;;10.19;57.88;99491.38;10511383;28;20047;-69
2023/11/07 15:34:11;;;;;;;0.98;0.45;;;;;;;10.02;57.67;99486.41;10514948;28;20051;-69
2023/11/07 15:39:14;;;;;;;2.42;0.90;;;;;;;9.76;58.08;99478.56;10513328;28;20681;-69
2023/11/07 15:44:16;;;;;;;1.60;0.80;;;;;;;9.80;58.21;99486.09;10515712;28;20055;-69
2023/11/07 15:49:18;;;;;;;1.00;0.73;;;;;;;9.71;58.27;99498.91;10513753;28;20515;-68
2023/11/07 15:54:20;;;;;;;0.60;0.60;;;;;;;9.79;58.47;99494.03;10514755;28;20044;-68
2023/11/07 15:59:23;;;;;;;0.75;0.70;;;;;;;9.89;58.44;99508.19;10512363;28;20059;-69
2023/11/07 16:04:25;;;;;;;1.10;0.80;;;;;;;9.95;58.84;99511.22;10514024;28;20055;-69
2023/11/07 16:09:27;;;;;;;1.90;0.90;;;;;;;10.01;58.84;99515.25;10511662;28;20127;-69
2023/11/07 16:14:30;;;;;;;1.02;0.90;;;;;;;9.99;58.81;99522.34;10511500;28;20040;-69
2023/11/07 16:19:32;;;;;;;2.58;0.80;;;;;;;10.05;58.94;99524.56;10511573;28;20052;-65
2023/11/07 16:24:34;;;;;;;0.50;0.47;;;;;;;10.01;59.24;99520.47;10522432;28;20419;-64
2023/11/07 16:29:37;;;;;;;4.57;0.90;;;;;;;9.96;59.56;99525.97;10513735;28;20063;-64
2023/11/07 16:34:39;;;;;;;0.73;0.55;;;;;;;9.94;59.37;99529.63;10518790;28;20064;-66
2023/11/07 16:39:41;;;;;;;0.93;0.70;;;;;;;9.97;59.38;99532.88;10521244;28;20044;-65
2023/11/07 16:44:43;;;;;;;1.70;0.80;;;;;;;9.94;59.39;99540.06;10520509;28;20130;-64
2023/11/07 16:49:45;;;;;;;2.05;0.70;;;;;;;9.81;59.43;99545.22;10520638;28;20133;-64
2023/11/07 16:54:48;;;;;;;0.88;0.60;;;;;;;9.75;59.60;99557.84;10520017;28;20040;-64
2023/11/07 16:59:51;;;;;;;2.47;0.82;;;;;;;9.79;59.52;99549.69;10519748;28;20289;-64
2023/11/07 17:04:53;;;;;;;1.98;0.95;;;;;;;9.71;59.44;99551.94;10518710;28;20119;-64
2023/11/07 17:09:55;;;;;;;0.45;0.45;;;;;;;9.61;59.78;99556.03;10518110;28;20048;-65
2023/11/07 17:14:57;;;;;;;1.33;0.90;;;;;;;9.58;59.53;99558.84;10519382;28;20044;-64
2023/11/07 17:19:59;;;;;;;4.35;1.40;;;;;;;9.47;59.51;99559.50;10519855;28;20048;-64
2023/11/07 17:25:02;;;;;;;1.98;0.70;;;;;;;9.38;59.60;99560.03;10519396;28;20162;-64
2023/11/07 17:30:07;;;;;;;2.70;0.80;;;;;;;9.26;60.20;99552.16;10516231;28;20040;-64
2023/11/07 17:35:11;;;;;;;2.42;1.10;;;;;;;9.26;59.93;99568.63;10531960;27;20047;-65
2023/11/07 17:40:17;;;;;;;1.27;0.80;;;;;;;9.09;60.22;99576.63;10512470;28;20496;-65
2023/11/07 17:45:19;;;;;;;3.50;0.98;;;;;;;9.10;60.24;99580.06;10513899;28;20551;-64
2023/11/07 17:50:21;;;;;;;0.98;0.63;;;;;;;9.15;60.15;99581.47;10505450;28;20420;-64
2023/11/07 17:55:23;;;;;;;2.40;1.30;;;;;;;9.02;60.35;99587.50;10515323;28;20062;-65
2023/11/07 18:00:29;;;;;;;1.10;1.00;;;;;;;8.96;60.43;99586.09;10515099;28;20036;-64
2023/11/07 18:05:31;;;;;;;1.17;0.65;;;;;;;8.94;60.50;99592.31;10514849;28;20040;-64
2023/11/07 18:10:33;;;;;;;1.67;0.90;;;;;;;8.92;60.60;99594.19;10495369;28;20265;-65
2023/11/07 18:15:35;;;;;;;3.72;0.80;;;;;;;8.79;60.84;99600.09;10496090;28;20746;-65
2023/11/07 18:20:37;;;;;;;2.58;0.90;;;;;;;8.80;60.78;99593.97;10513904;28;20040;-65
2023/11/07 18:25:39;;;;;;;1.23;0.80;;;;;;;8.83;60.61;99601.59;10510069;28;20036;-65
2023/11/07 18:30:43;;;;;;;3.65;1.50;;;;;;;8.85;60.85;99598.94;10513639;28;20101;-64
2023/11/07 18:35:45;;;;;;;4.15;1.50;;;;;;;8.98;60.51;99596.44;10514254;28;20046;-65
2023/11/07 18:40:47;;;;;;;5.57;1.35;;;;;;;8.93;60.40;99599.31;10512785;28;20052;-64
2023/11/07 18:45:49;;;;;;;1.77;1.20;;;;;;;9.00;60.26;99613.66;10512123;28;20052;-65
2023/11/07 18:50:51;;;;;;;1.02;0.75;;;;;;;9.05;60.14;99609.03;10515697;28;20076;-64
2023/11/07 18:55:54;;;;;;;5.15;1.15;;;;;;;8.93;59.91;99607.16;10513237;28;20055;-64
2023/11/07 19:00:56;;;;;;;4.20;1.00;;;;;;;8.84;60.23;99602.44;10514327;28;20050;-64
2023/11/07 19:05:58;;;;;;;1.52;0.90;;;;;;;8.70;60.26;99607.63;10515493;28;20048;-64
2023/11/07 19:11:00;;;;;;;1.38;1.00;;;;;;;8.59;60.52;99612.59;10515071;28;20510;-64
2023/11/07 19:16:02;;;;;;;1.40;0.90;;;;;;;8.53;60.60;99610.34;10498036;28;20551;-64
2023/11/07 19:21:07;;;;;;;3.05;0.90;;;;;;;8.54;60.54;99610.28;10515017;28;20110;-64
2023/11/07 19:26:10;;;;;;;1.95;1.02;;;;;;;8.51;60.55;99620.00;10513164;28;20132;-65
2023/11/07 19:31:12;;;;;;;2.33;0.80;;;;;;;8.42;60.75;99615.31;10531078;28;20040;-64
2023/11/07 19:36:15;;;;;;;2.80;1.00;;;;;;;8.44;60.78;99616.09;10496617;28;20316;-64
2023/11/07 19:41:17;;;;;;;1.98;1.38;;;;;;;8.43;60.76;99624.81;10509015;28;20036;-64
2023/11/07 19:46:19;;;;;;;3.28;1.23;;;;;;;8.46;60.78;99620.28;10510719;28;20044;-64
2023/11/07 19:51:21;;;;;;;3.78;2.20;;;;;;;8.56;60.71;99624.06;10496489;28;20154;-64
2023/11/07 19:56:23;;;;;;;4.80;2.17;;;;;;;8.65;60.56;99620.06;10499904;28;20051;-64
2023/11/07 20:01:25;;;;;;;5.07;1.83;;;;;;;8.75;60.39;99621.25;10520636;28;20503;-64
2023/11/07 20:06:29;;;;;;;12.63;1.80;;;;;;;8.76;60.20;99615.94;10518607;28;20127;-64
2023/11/07 20:11:32;;;;;;;4.00;1.63;;;;;;;8.79;60.14;99627.97;10519551;28;20549;-64
2023/11/07 20:16:34;;;;;;;4.28;1.20;;;;;;;8.82;60.13;99631.22;10521605;28;20369;-64
2023/11/07 20:21:36;;;;;;;4.05;1.48;;;;;;;8.91;60.06;99632.47;10520988;28;20194;-65
2023/11/07 20:26:38;;;;;;;3.95;2.17;;;;;;;8.94;59.82;99636.66;10520117;28;20052;-65
2023/11/07 20:31:40;;;;;;;2.85;1.65;;;;;;;9.04;59.59;99637.81;10520223;28;20046;-64
2023/11/07 20:36:42;;;;;;;4.70;1.60;;;;;;;9.03;59.69;99636.97;10520445;28;20044;-65
2023/11/07 20:41:45;;;;;;;2.78;1.15;;;;;;;9.00;59.69;99637.16;10518475;28;20056;-64
2023/11/07 20:46:54;;;;;;;7.03;1.35;;;;;;;8.94;59.78;99641.88;10497669;28;20062;-64
2023/11/07 20:51:56;;;;;;;2.15;1.13;;;;;;;8.95;59.54;99633.13;10517966;28;20064;-64
2023/11/07 20:56:58;;;;;;;4.57;1.10;;;;;;;8.90;59.71;99630.78;10520102;28;20046;-64
2023/11/07 21:02:00;;;;;;;2.08;1.17;;;;;;;8.88;59.90;99635.25;10518571;28;20051;-64
2023/11/07 21:07:02;;;;;;;1.50;1.20;;;;;;;8.93;59.68;99635.00;10517123;28;20202;-65
2023/11/07 21:12:05;;;;;;;4.15;1.20;;;;;;;9.02;59.79;99639.66;10517823;28;20052;-66
2023/11/07 21:17:07;;;;;;;3.67;1.73;;;;;;;9.11;59.43;99632.16;10517777;28;20052;-65
2023/11/07 21:22:10;;;;;;;6.60;2.08;;;;;;;9.12;59.05;99635.59;10536451;27;20127;-65
2023/11/07 21:27:13;;;;;;;5.00;1.67;;;;;;;9.20;59.01;99641.22;10515716;28;20857;-65
2023/11/07 21:32:15;;;;;;;3.55;1.65;;;;;;;9.28;58.80;99636.41;10517468;28;20048;-64
2023/11/07 21:37:17;;;;;;;4.55;1.40;;;;;;;9.31;58.79;99636.19;10513040;28;20499;-64
2023/11/07 21:42:19;;;;;;;1.85;1.10;;;;;;;9.35;58.73;99628.09;10517073;28;20052;-64
2023/11/07 21:47:21;;;;;;;2.03;0.90;;;;;;;9.35;58.59;99629.88;10514140;28;20059;-65
2023/11/07 21:52:24;;;;;;;2.60;1.10;;;;;;;9.40;58.72;99626.03;10516053;28;20070;-64
2023/11/07 21:57:26;;;;;;;2.92;1.20;;;;;;;9.51;58.59;99628.00;10497063;28;20047;-64
2023/11/07 22:02:28;;;;;;;3.63;1.40;;;;;;;9.61;58.42;99627.38;10498223;28;20040;-64
2023/11/07 22:07:30;;;;;;;2.42;1.10;;;;;;;9.48;58.37;99633.44;10509371;28;20108;-64
2023/11/07 22:12:32;;;;;;;3.60;1.10;;;;;;;9.48;58.36;99629.03;10506014;28;20040;-64
2023/11/07 22:17:34;;;;;;;1.20;1.10;;;;;;;9.52;58.17;99621.88;10510861;28;20036;-64
2023/11/07 22:22:39;;;;;;;0.73;0.70;;;;;;;9.47;58.06;99632.59;10512185;28;20055;-64
2023/11/07 22:27:42;;;;;;;3.50;1.20;;;;;;;9.44;58.01;99637.97;10497869;28;20051;-64
2023/11/07 22:32:44;;;;;;;1.20;1.00;;;;;;;9.48;58.07;99644.69;10517644;28;20384;-64
2023/11/07 22:37:46;;;;;;;2.13;1.23;;;;;;;9.46;57.88;99643.13;10516174;28;20040;-64
2023/11/07 22:42:48;;;;;;;2.85;0.98;;;;;;;9.43;58.24;99646.75;10513116;28;20062;-64
2023/11/07 22:47:51;;;;;;;1.75;1.15;;;;;;;9.41;58.06;99647.75;10508381;28;20048;-64
2023/11/07 22:52:53;;;;;;;1.50;1.10;;;;;;;9.51;57.81;99647.13;10493045;28;20071;-64
2023/11/07 22:57:55;;;;;;;4.07;1.40;;;;;;;9.43;58.04;99648.50;10515553;28;20794;-64
2023/11/07 23:03:01;;;;;;;5.18;1.33;;;;;;;9.24;58.16;99645.34;10512688;28;20048;-64
2023/11/07 23:08:04;;;;;;;2.13;0.98;;;;;;;9.30;58.16;99658.84;10514784;28;20047;-63
2023/11/07 23:13:06;;;;;;;2.10;1.05;;;;;;;9.24;58.30;99661.81;10514362;28;20063;-63
2023/11/07 23:18:10;;;;;;;2.83;0.90;;;;;;;9.14;58.46;99652.84;10516558;28;20063;-64
2023/11/07 23:23:13;;;;;;;2.20;1.15;;;;;;;9.10;58.45;99674.81;10497233;28;20048;-64
2023/11/07 23:28:15;;;;;;;2.05;1.02;;;;;;;8.99;58.56;99669.38;10497089;28;20039;-64
2023/11/07 23:33:18;;;;;;;3.67;1.02;;;;;;;8.90;58.74;99658.63;10539704;27;20048;-65
2023/11/07 23:38:21;;;;;;;2.17;1.20;;;;;;;8.89;58.90;99656.97;10521636;28;20502;-64